Time;durP1;ratioP1;P1;durP2;ratioP2;P2;SDS_P1;SDS_P2;PMS_P1;PMS_P2;Temp;Humidity;BMP_temperature;BMP_pressure;BME280_temperature;BME280_humidity;BME280_pressure;Samples;Min_cycle;Max_cycle;Signal;HPM_P1;HPM_P2
2020/12/07 00:01:35;;;;;;;18.43;13.23;;;8.60;99.90;;;;;;5012185;28;20641;-74
2020/12/07 00:04:00;;;;;;;16.10;13.23;;;8.60;99.90;;;;;;5012993;28;20179;-73
2020/12/07 00:06:25;;;;;;;16.90;12.50;;;8.60;99.90;;;;;;5012955;28;20179;-72
2020/12/07 00:08:51;;;;;;;14.63;11.43;;;8.60;99.90;;;;;;5012933;28;20620;-72
2020/12/07 00:11:16;;;;;;;17.90;11.37;;;8.60;99.90;;;;;;5013104;28;20175;-72
2020/12/07 00:13:42;;;;;;;22.90;13.13;;;8.60;99.90;;;;;;5012964;28;20172;-72
2020/12/07 00:16:09;;;;;;;17.87;12.53;;;8.60;99.90;;;;;;5013048;28;20579;-73
2020/12/07 00:18:35;;;;;;;20.70;13.10;;;8.60;99.90;;;;;;5012745;28;20184;-73
2020/12/07 00:21:01;;;;;;;19.73;13.40;;;8.60;99.90;;;;;;5012870;28;20829;-73
2020/12/07 00:23:26;;;;;;;18.00;11.53;;;8.60;99.90;;;;;;5012820;28;20446;-75
2020/12/07 00:25:51;;;;;;;15.70;11.60;;;8.50;99.90;;;;;;5012691;28;20170;-72
2020/12/07 00:28:17;;;;;;;15.70;12.17;;;8.50;99.90;;;;;;5013020;28;20703;-72
2020/12/07 00:30:42;;;;;;;14.37;10.87;;;8.50;99.90;;;;;;5012721;28;20172;-75
2020/12/07 00:33:08;;;;;;;14.53;10.53;;;8.50;99.90;;;;;;5027956;28;20173;-72
2020/12/07 00:35:33;;;;;;;16.67;12.67;;;8.50;99.90;;;;;;5012673;28;20193;-73
2020/12/07 00:37:59;;;;;;;16.10;12.20;;;8.50;99.90;;;;;;5012395;28;20192;-73
2020/12/07 00:40:24;;;;;;;17.40;10.83;;;8.40;99.90;;;;;;5012604;28;20164;-72
2020/12/07 00:42:50;;;;;;;17.93;12.10;;;8.40;99.90;;;;;;5012537;28;20215;-72
2020/12/07 00:45:15;;;;;;;14.33;11.07;;;8.40;99.90;;;;;;5012487;28;20176;-74
2020/12/07 00:47:41;;;;;;;16.77;12.73;;;8.40;99.90;;;;;;5012475;28;20180;-72
2020/12/07 00:50:06;;;;;;;16.80;10.90;;;8.40;99.90;;;;;;5012408;28;20595;-72
2020/12/07 00:52:32;;;;;;;19.27;13.20;;;8.40;99.90;;;;;;5012331;28;20262;-73
2020/12/07 00:54:57;;;;;;;14.23;11.80;;;8.50;99.90;;;;;;5012273;28;20203;-75
2020/12/07 00:57:22;;;;;;;15.07;11.30;;;8.50;99.90;;;;;;5012285;28;20255;-72
2020/12/07 00:59:48;;;;;;;19.63;12.20;;;8.50;99.90;;;;;;5012170;28;20192;-72
2020/12/07 01:02:13;;;;;;;17.63;13.57;;;8.50;99.90;;;;;;5012136;28;20180;-73
2020/12/07 01:04:39;;;;;;;13.50;9.90;;;8.50;99.90;;;;;;5012155;28;20274;-72
2020/12/07 01:07:04;;;;;;;15.60;12.00;;;8.60;99.90;;;;;;5012416;28;20180;-73
2020/12/07 01:09:30;;;;;;;17.20;12.00;;;8.60;99.90;;;;;;5012052;28;20684;-73
2020/12/07 01:11:58;;;;;;;16.53;12.60;;;8.60;99.90;;;;;;5011643;28;20179;-72
2020/12/07 01:14:24;;;;;;;14.03;11.00;;;8.60;99.90;;;;;;5012087;28;20549;-73
2020/12/07 01:16:50;;;;;;;17.33;10.70;;;8.60;99.90;;;;;;5011977;28;20494;-72
2020/12/07 01:19:16;;;;;;;14.10;10.40;;;8.60;99.90;;;;;;5012291;28;20191;-75
2020/12/07 01:21:41;;;;;;;17.07;11.60;;;8.60;99.90;;;;;;5012279;28;20495;-73
2020/12/07 01:24:07;;;;;;;19.40;11.53;;;8.60;99.90;;;;;;5012121;28;20223;-72
2020/12/07 01:26:34;;;;;;;20.20;11.87;;;8.60;99.90;;;;;;5012399;28;20222;-72
2020/12/07 01:29:00;;;;;;;15.50;10.13;;;8.50;99.90;;;;;;5011974;28;20911;-73
2020/12/07 01:31:26;;;;;;;14.57;10.37;;;8.50;99.90;;;;;;5027160;28;20417;-72
2020/12/07 01:33:51;;;;;;;16.17;11.33;;;8.50;99.90;;;;;;5011885;28;20501;-72
2020/12/07 01:36:17;;;;;;;14.67;10.90;;;8.50;99.90;;;;;;5012039;28;20176;-73
2020/12/07 01:38:42;;;;;;;14.50;11.10;;;8.50;99.90;;;;;;5011926;28;20200;-74
2020/12/07 01:41:08;;;;;;;17.17;10.57;;;8.50;99.90;;;;;;5011909;28;20195;-72
2020/12/07 01:43:34;;;;;;;16.50;12.50;;;8.50;99.90;;;;;;5011909;28;20195;-72
2020/12/07 01:45:59;;;;;;;15.70;11.00;;;8.50;99.90;;;;;;5011773;28;20179;-72
2020/12/07 01:48:26;;;;;;;14.00;11.00;;;8.40;99.90;;;;;;5011816;28;20197;-72
2020/12/07 01:50:53;;;;;;;18.90;12.53;;;8.40;99.90;;;;;;5011718;28;20422;-73
2020/12/07 01:53:20;;;;;;;16.90;11.30;;;8.40;99.90;;;;;;5011832;28;20415;-72
2020/12/07 01:55:47;;;;;;;15.70;11.00;;;8.30;99.90;;;;;;5011730;28;20977;-72
2020/12/07 01:58:12;;;;;;;16.40;11.80;;;8.30;99.90;;;;;;5011567;28;20510;-72
2020/12/07 02:00:39;;;;;;;14.83;11.67;;;8.30;99.90;;;;;;5011684;28;20411;-72
2020/12/07 02:03:05;;;;;;;17.70;12.47;;;8.20;99.90;;;;;;5011738;28;20621;-72
2020/12/07 02:05:32;;;;;;;16.27;12.70;;;8.20;99.90;;;;;;5011821;28;20415;-72
2020/12/07 02:08:15;;;;;;;17.43;12.10;;;8.20;99.90;;;;;;5026450;28;20481;-73
2020/12/07 02:10:42;;;;;;;17.07;13.23;;;8.20;99.90;;;;;;5011663;28;20793;-75
2020/12/07 02:13:07;;;;;;;16.47;12.27;;;8.20;99.90;;;;;;5011888;28;20442;-73
2020/12/07 02:15:33;;;;;;;16.13;11.70;;;8.20;99.90;;;;;;5011675;28;20482;-75
2020/12/07 02:18:04;;;;;;;15.70;11.47;;;8.20;99.90;;;;;;5011615;28;20208;-75
2020/12/07 02:20:29;;;;;;;17.17;12.33;;;8.20;99.90;;;;;;5011869;28;20445;-75
2020/12/07 02:22:55;;;;;;;18.27;12.93;;;8.20;99.90;;;;;;5011753;28;20410;-74
2020/12/07 02:25:21;;;;;;;13.70;10.90;;;8.20;99.90;;;;;;5014951;28;20188;-74
2020/12/07 02:27:48;;;;;;;14.37;12.73;;;8.10;99.90;;;;;;5030291;28;20595;-74
2020/12/07 02:30:18;;;;;;;17.33;12.33;;;8.10;99.90;;;;;;5015283;28;20414;-74
2020/12/07 02:32:44;;;;;;;20.30;12.10;;;8.10;99.90;;;;;;5015311;28;20411;-75
2020/12/07 02:35:11;;;;;;;16.83;12.13;;;8.10;99.90;;;;;;5013999;28;20455;-74
2020/12/07 02:37:37;;;;;;;16.80;11.87;;;8.00;99.90;;;;;;5015048;28;20404;-74
2020/12/07 02:40:04;;;;;;;15.70;11.73;;;8.00;99.90;;;;;;5015051;28;20950;-74
2020/12/07 02:42:32;;;;;;;16.90;12.13;;;8.00;99.90;;;;;;5014888;28;20784;-75
2020/12/07 02:44:59;;;;;;;17.77;12.87;;;8.00;99.90;;;;;;5014861;28;20411;-73
2020/12/07 02:47:26;;;;;;;16.97;12.00;;;8.00;99.90;;;;;;5014931;28;20929;-74
2020/12/07 02:49:54;;;;;;;19.60;13.00;;;7.90;99.90;;;;;;5015022;28;20431;-74
2020/12/07 02:52:23;;;;;;;18.30;13.27;;;8.00;99.90;;;;;;5014776;28;20931;-76
2020/12/07 02:54:56;;;;;;;19.50;13.07;;;8.00;99.90;;;;;;5014705;28;20443;-74
2020/12/07 02:57:22;;;;;;;14.37;11.40;;;7.90;99.90;;;;;;5014833;28;20407;-74
2020/12/07 02:59:48;;;;;;;17.17;11.20;;;8.00;99.90;;;;;;5014536;28;20502;-75
2020/12/07 03:02:14;;;;;;;17.07;12.93;;;7.90;99.90;;;;;;5014583;28;20465;-74
2020/12/07 03:04:40;;;;;;;15.13;11.50;;;8.00;99.90;;;;;;5014793;28;20407;-74
2020/12/07 03:07:06;;;;;;;15.57;11.80;;;8.00;99.90;;;;;;5014649;28;20644;-74
2020/12/07 03:09:31;;;;;;;19.57;13.03;;;8.00;99.90;;;;;;5014670;28;20595;-74
2020/12/07 03:11:57;;;;;;;16.37;12.20;;;8.10;99.90;;;;;;5014871;28;20465;-75
2020/12/07 03:14:22;;;;;;;19.23;12.87;;;8.10;99.90;;;;;;5015678;28;20290;-74
2020/12/07 03:16:48;;;;;;;17.13;12.43;;;8.10;99.90;;;;;;5015544;28;20176;-75
2020/12/07 03:19:14;;;;;;;21.03;12.53;;;8.10;99.90;;;;;;5016168;28;20641;-75
2020/12/07 03:21:39;;;;;;;15.77;10.87;;;8.10;99.90;;;;;;5015581;28;20264;-74
2020/12/07 03:24:05;;;;;;;18.03;12.50;;;8.10;99.90;;;;;;5014455;28;20208;-74
2020/12/07 03:26:34;;;;;;;14.40;12.23;;;8.10;99.90;;;;;;5014419;28;20164;-75
2020/12/07 03:29:02;;;;;;;17.13;12.60;;;8.10;99.90;;;;;;5014621;28;20856;-74
2020/12/07 03:31:32;;;;;;;16.27;12.27;;;8.10;99.90;;;;;;5014502;28;20415;-75
2020/12/07 03:33:58;;;;;;;17.70;11.80;;;8.10;99.90;;;;;;5013995;28;20403;-75
2020/12/07 03:36:24;;;;;;;16.80;11.60;;;8.10;99.90;;;;;;5013669;28;20406;-74
2020/12/07 03:38:50;;;;;;;22.13;11.67;;;8.10;99.90;;;;;;5013838;28;20904;-74
2020/12/07 03:41:16;;;;;;;17.20;11.47;;;8.10;99.90;;;;;;5014186;28;20222;-73
2020/12/07 03:43:41;;;;;;;16.53;11.33;;;8.00;99.90;;;;;;5013881;28;20404;-74
2020/12/07 03:46:07;;;;;;;16.40;12.40;;;8.00;99.90;;;;;;5014111;28;20169;-74
2020/12/07 03:48:32;;;;;;;17.23;12.70;;;8.00;99.90;;;;;;5013701;28;20188;-74
2020/12/07 03:50:58;;;;;;;16.20;11.53;;;8.00;99.90;;;;;;5013685;28;20177;-73
2020/12/07 03:53:23;;;;;;;15.23;11.10;;;8.00;99.90;;;;;;5013680;28;20173;-74
2020/12/07 03:55:49;;;;;;;20.60;12.37;;;8.00;99.90;;;;;;5013755;28;20195;-74
2020/12/07 03:58:14;;;;;;;16.40;12.20;;;7.90;99.90;;;;;;5013463;28;20645;-74
2020/12/07 04:00:40;;;;;;;20.10;12.00;;;8.00;99.90;;;;;;5013563;28;20182;-74
2020/12/07 04:03:09;;;;;;;19.20;11.93;;;8.00;99.90;;;;;;5013519;28;20227;-76
2020/12/07 04:05:39;;;;;;;17.10;12.10;;;8.00;99.90;;;;;;5013561;28;20174;-75
2020/12/07 04:08:05;;;;;;;15.80;11.73;;;7.90;99.90;;;;;;5012961;28;20407;-75
2020/12/07 04:10:30;;;;;;;15.33;11.83;;;7.90;99.90;;;;;;5013544;28;20915;-74
2020/12/07 04:12:56;;;;;;;14.87;11.13;;;7.90;99.90;;;;;;5013173;28;20585;-75
2020/12/07 04:15:21;;;;;;;17.30;11.90;;;7.90;99.90;;;;;;5013056;28;20200;-75
2020/12/07 04:17:47;;;;;;;15.60;10.70;;;7.90;99.90;;;;;;5013001;28;20168;-75
2020/12/07 04:20:12;;;;;;;16.67;11.97;;;7.90;99.90;;;;;;5013239;28;20210;-74
2020/12/07 04:22:38;;;;;;;15.63;12.17;;;7.80;99.90;;;;;;5013052;28;20645;-75
2020/12/07 04:25:03;;;;;;;14.10;11.30;;;7.80;99.90;;;;;;5013231;28;20172;-74
2020/12/07 04:27:29;;;;;;;15.63;12.23;;;7.80;99.90;;;;;;5012810;28;20695;-75
2020/12/07 04:29:54;;;;;;;15.70;12.00;;;7.80;99.90;;;;;;5012853;28;20649;-75
2020/12/07 04:32:20;;;;;;;15.67;11.60;;;7.80;99.90;;;;;;5028087;28;20271;-75
2020/12/07 04:34:45;;;;;;;16.03;11.60;;;7.80;99.90;;;;;;5012648;28;20192;-74
2020/12/07 04:37:11;;;;;;;14.07;10.17;;;7.80;99.90;;;;;;5012336;28;20223;-74
2020/12/07 04:39:36;;;;;;;15.40;11.43;;;7.80;99.90;;;;;;5027784;28;20188;-75
2020/12/07 04:42:02;;;;;;;19.93;12.00;;;7.80;99.90;;;;;;5012931;28;20256;-75
2020/12/07 04:44:28;;;;;;;17.80;11.50;;;7.80;99.90;;;;;;5012653;28;20172;-75
2020/12/07 04:46:54;;;;;;;18.27;12.17;;;7.80;99.90;;;;;;5011893;28;20407;-74
2020/12/07 04:49:21;;;;;;;15.00;12.20;;;7.80;99.90;;;;;;5012676;28;20849;-74
2020/12/07 04:51:48;;;;;;;17.40;12.07;;;7.70;99.90;;;;;;5012617;28;20784;-74
2020/12/07 04:54:15;;;;;;;17.07;11.70;;;7.70;99.90;;;;;;5012758;28;21017;-74
2020/12/07 04:56:41;;;;;;;22.67;13.73;;;7.70;99.90;;;;;;5012812;28;20493;-74
2020/12/07 04:59:08;;;;;;;15.83;12.00;;;7.70;99.90;;;;;;5012613;28;20434;-74
2020/12/07 05:01:34;;;;;;;15.43;11.50;;;7.70;99.90;;;;;;5012594;28;20473;-74
2020/12/07 05:03:59;;;;;;;20.20;13.77;;;7.60;99.90;;;;;;5012695;28;20407;-74
2020/12/07 05:06:27;;;;;;;17.20;12.07;;;7.60;99.90;;;;;;5012087;28;20187;-74
2020/12/07 05:08:53;;;;;;;15.47;12.73;;;7.60;99.90;;;;;;5012300;28;20212;-73
2020/12/07 05:11:18;;;;;;;18.60;11.67;;;7.50;99.90;;;;;;5012087;28;20502;-74
2020/12/07 05:13:48;;;;;;;19.70;12.70;;;7.50;99.90;;;;;;5012092;28;20169;-73
2020/12/07 05:16:14;;;;;;;17.47;12.13;;;7.40;99.90;;;;;;5012563;28;20168;-74
2020/12/07 05:18:41;;;;;;;18.53;12.27;;;7.40;99.90;;;;;;5012049;28;20757;-72
2020/12/07 05:21:07;;;;;;;18.77;12.13;;;7.40;99.90;;;;;;5012039;28;20226;-72
2020/12/07 05:23:36;;;;;;;19.47;12.03;;;7.40;99.90;;;;;;5012120;28;20487;-72
2020/12/07 05:26:02;;;;;;;16.40;12.93;;;7.30;99.90;;;;;;5012110;28;20168;-73
2020/12/07 05:28:35;;;;;;;17.90;12.53;;;7.40;99.90;;;;;;5011976;28;20431;-73
2020/12/07 05:31:00;;;;;;;17.87;11.83;;;7.40;99.90;;;;;;5012142;28;20399;-73
2020/12/07 05:33:25;;;;;;;16.17;11.60;;;7.30;99.90;;;;;;5011890;28;20910;-73
2020/12/07 05:35:54;;;;;;;17.10;13.10;;;7.30;99.90;;;;;;5011904;28;20204;-74
2020/12/07 05:38:20;;;;;;;16.50;12.00;;;7.30;99.90;;;;;;5011920;28;20215;-74
2020/12/07 05:40:45;;;;;;;21.90;13.13;;;7.30;99.90;;;;;;5011967;28;20407;-74
2020/12/07 05:43:16;;;;;;;15.87;11.40;;;7.30;99.90;;;;;;5010727;28;20172;-74
2020/12/07 05:45:42;;;;;;;16.30;11.60;;;7.30;99.90;;;;;;5011975;28;20407;-74
2020/12/07 05:48:10;;;;;;;19.07;11.87;;;7.30;99.90;;;;;;5011582;28;20427;-74
2020/12/07 05:50:43;;;;;;;18.77;11.90;;;7.30;99.90;;;;;;5011971;28;20415;-73
2020/12/07 05:53:09;;;;;;;20.87;13.13;;;7.30;99.90;;;;;;5011880;28;20818;-73
2020/12/07 05:55:35;;;;;;;13.00;10.73;;;7.20;99.90;;;;;;5011696;28;20542;-74
2020/12/07 05:58:06;;;;;;;17.63;12.57;;;7.20;99.90;;;;;;5012891;28;20175;-73
2020/12/07 06:00:33;;;;;;;18.60;13.23;;;7.20;99.90;;;;;;5015549;28;20438;-74
2020/12/07 06:03:01;;;;;;;18.73;12.43;;;7.20;99.90;;;;;;5015587;28;20438;-74
2020/12/07 06:05:26;;;;;;;19.20;13.50;;;7.20;99.90;;;;;;5015563;28;20403;-73
2020/12/07 06:08:13;;;;;;;16.97;13.30;;;7.10;99.90;;;;;;5015473;28;20952;-74
2020/12/07 06:10:47;;;;;;;17.97;12.80;;;7.10;99.90;;;;;;5015431;28;20431;-74
2020/12/07 06:13:18;;;;;;;20.70;13.10;;;7.10;99.90;;;;;;5015447;28;20884;-73
2020/12/07 06:15:53;;;;;;;19.40;13.43;;;7.00;99.90;;;;;;5015427;28;20455;-74
2020/12/07 06:18:29;;;;;;;19.37;14.00;;;7.10;99.90;;;;;;5015259;28;20841;-74
2020/12/07 06:20:56;;;;;;;19.63;12.17;;;7.00;99.90;;;;;;5015347;28;20434;-74
2020/12/07 06:23:32;;;;;;;23.90;13.77;;;7.00;99.90;;;;;;5030219;28;20411;-74
2020/12/07 06:26:03;;;;;;;18.00;12.43;;;7.00;99.90;;;;;;5015230;28;20414;-73
2020/12/07 06:28:34;;;;;;;19.10;14.10;;;6.90;99.90;;;;;;5014895;28;20569;-74
2020/12/07 06:31:03;;;;;;;16.17;12.60;;;6.90;99.90;;;;;;5015158;28;20765;-74
2020/12/07 06:33:29;;;;;;;16.33;11.67;;;6.80;99.90;;;;;;5014984;28;20414;-73
2020/12/07 06:35:54;;;;;;;18.33;14.23;;;6.80;99.90;;;;;;5014744;28;20454;-73
2020/12/07 06:38:20;;;;;;;21.87;13.97;;;6.70;99.90;;;;;;5014760;28;20295;-74
2020/12/07 06:40:51;;;;;;;20.00;13.80;;;6.70;99.90;;;;;;5014828;28;20535;-76
2020/12/07 06:43:21;;;;;;;26.20;15.37;;;6.60;99.90;;;;;;5014872;28;20396;-76
2020/12/07 06:45:47;;;;;;;21.80;14.03;;;6.60;99.90;;;;;;5014871;28;20403;-75
2020/12/07 06:48:15;;;;;;;20.30;14.40;;;6.50;99.90;;;;;;5015373;28;20441;-74
2020/12/07 06:50:43;;;;;;;22.57;14.97;;;6.50;99.90;;;;;;5014706;28;20930;-75
2020/12/07 06:53:19;;;;;;;22.83;14.60;;;6.50;99.90;;;;;;5015024;28;20415;-74
2020/12/07 06:55:45;;;;;;;21.70;14.77;;;6.40;99.90;;;;;;5014445;28;20490;-74
2020/12/07 06:58:10;;;;;;;21.73;13.90;;;6.40;99.90;;;;;;5014217;28;20818;-74
2020/12/07 07:00:36;;;;;;;24.00;15.50;;;6.40;99.90;;;;;;5014466;28;20259;-74
2020/12/07 07:03:01;;;;;;;21.50;15.80;;;6.40;99.90;;;;;;5014360;28;20204;-73
2020/12/07 07:05:29;;;;;;;22.17;13.63;;;6.50;99.90;;;;;;5014424;28;20672;-73
2020/12/07 07:07:56;;;;;;;18.60;12.47;;;6.50;99.90;;;;;;5014239;28;20204;-72
2020/12/07 07:10:22;;;;;;;24.10;14.57;;;6.50;99.90;;;;;;5013689;28;20499;-73
2020/12/07 07:12:49;;;;;;;19.00;14.40;;;6.50;99.90;;;;;;5014267;28;20915;-73
2020/12/07 07:15:15;;;;;;;19.50;13.63;;;6.50;99.90;;;;;;5014219;28;20443;-72
2020/12/07 07:17:42;;;;;;;19.70;13.13;;;6.50;99.90;;;;;;5013903;28;20494;-74
2020/12/07 07:20:10;;;;;;;19.93;13.40;;;6.60;99.90;;;;;;5014054;28;20238;-73
2020/12/07 07:22:40;;;;;;;22.87;13.67;;;6.60;99.90;;;;;;5014122;28;20464;-73
2020/12/07 07:30:25;;;;;;;19.87;12.90;;;6.60;99.90;;;;;;5014421;28;20407;-75
2020/12/07 07:32:53;;;;;;;17.50;12.93;;;6.70;99.90;;;;;;5014014;28;20780;-73
2020/12/07 07:35:21;;;;;;;17.63;13.00;;;6.70;99.90;;;;;;5029042;28;20240;-74
2020/12/07 07:37:46;;;;;;;19.40;12.70;;;6.70;99.90;;;;;;5013899;28;20411;-74
2020/12/07 07:40:17;;;;;;;18.27;13.03;;;6.70;99.90;;;;;;5013891;28;20928;-74
2020/12/07 07:42:48;;;;;;;19.13;13.83;;;6.70;99.90;;;;;;5013761;28;20173;-72
2020/12/07 07:45:14;;;;;;;17.13;12.23;;;6.70;99.90;;;;;;5013799;28;20415;-74
2020/12/07 07:47:55;;;;;;;16.30;12.80;;;6.70;99.90;;;;;;5013519;28;20944;-72
2020/12/07 07:50:43;;;;;;;18.80;13.83;;;6.70;99.90;;;;;;5013641;28;20412;-72
2020/12/07 08:06:15;;;;;;;17.20;13.33;;;6.80;99.90;;;;;;5014439;28;20430;-72
2020/12/07 08:08:17;;;;;;;16.30;12.77;;;6.80;99.90;;;;;;5013344;28;20486;-73
2020/12/07 08:15:12;;;;;;;21.60;13.90;;;6.80;99.90;;;;;;5016568;28;20437;-73
2020/12/07 08:18:07;;;;;;;15.83;12.60;;;6.80;99.90;;;;;;5033221;28;20460;-73
2020/12/07 08:20:36;;;;;;;17.50;12.43;;;6.80;99.90;;;;;;5032256;28;20414;-73
2020/12/07 08:23:06;;;;;;;16.57;12.80;;;6.80;99.90;;;;;;5031937;28;20698;-72
2020/12/07 08:25:45;;;;;;;19.20;13.20;;;6.80;99.90;;;;;;5032618;28;20891;-73
2020/12/07 08:28:38;;;;;;;15.23;10.90;;;6.90;99.90;;;;;;5032423;28;20846;-73
2020/12/07 08:31:23;;;;;;;22.80;13.40;;;6.80;99.90;;;;;;5015792;28;20450;-72
2020/12/07 08:34:03;;;;;;;18.67;14.87;;;6.90;99.90;;;;;;5012750;28;20395;-73
2020/12/07 08:36:31;;;;;;;17.90;13.00;;;6.90;99.90;;;;;;5012602;28;20410;-73
2020/12/07 08:38:57;;;;;;;17.40;12.47;;;7.00;99.90;;;;;;5012515;28;20477;-73
2020/12/07 08:41:25;;;;;;;20.27;13.50;;;7.00;99.90;;;;;;5012698;28;20395;-73
2020/12/07 08:43:55;;;;;;;16.83;13.00;;;7.00;99.90;;;;;;5012808;28;20400;-73
2020/12/07 08:46:23;;;;;;;18.23;12.17;;;7.00;99.90;;;;;;5014393;28;20766;-73
2020/12/07 08:48:49;;;;;;;20.97;13.53;;;7.00;99.90;;;;;;5032231;28;21017;-73
2020/12/07 08:51:19;;;;;;;17.63;12.47;;;7.10;99.90;;;;;;5032245;28;20891;-72
2020/12/07 08:53:44;;;;;;;16.83;12.63;;;7.00;99.90;;;;;;5032139;28;20407;-73
2020/12/07 08:56:10;;;;;;;20.40;14.60;;;7.10;99.90;;;;;;5032007;28;20879;-73
2020/12/07 08:58:37;;;;;;;18.40;13.40;;;7.10;99.90;;;;;;5032328;28;20290;-72
2020/12/07 09:01:07;;;;;;;16.00;12.63;;;7.10;99.90;;;;;;5032234;28;20402;-73
2020/12/07 09:03:34;;;;;;;17.17;11.60;;;7.10;99.90;;;;;;5032138;28;20985;-73
2020/12/07 09:06:01;;;;;;;15.77;12.30;;;7.10;99.90;;;;;;5031868;28;20410;-73
2020/12/07 09:08:26;;;;;;;18.30;11.97;;;7.20;99.90;;;;;;5031904;28;21020;-74
2020/12/07 09:10:52;;;;;;;15.70;13.60;;;7.30;99.90;;;;;;5032109;28;20486;-73
2020/12/07 09:13:17;;;;;;;18.27;12.27;;;7.20;99.90;;;;;;5032025;28;20170;-73
2020/12/07 09:15:43;;;;;;;20.07;12.30;;;7.30;99.90;;;;;;5031954;28;20195;-72
2020/12/07 09:18:09;;;;;;;18.67;13.30;;;7.30;99.90;;;;;;5031745;28;20184;-72
2020/12/07 09:20:35;;;;;;;20.37;12.80;;;7.20;99.90;;;;;;5031460;28;20168;-72
2020/12/07 09:23:00;;;;;;;16.40;12.10;;;7.30;99.90;;;;;;5032026;28;20409;-72
2020/12/07 09:25:26;;;;;;;21.50;14.00;;;7.30;99.90;;;;;;5032037;28;20172;-72
2020/12/07 09:27:52;;;;;;;17.40;12.30;;;7.30;99.90;;;;;;5031754;28;20167;-73
2020/12/07 09:30:17;;;;;;;19.83;13.17;;;7.40;99.90;;;;;;5032090;28;20537;-73
2020/12/07 09:32:43;;;;;;;17.97;13.90;;;7.40;99.90;;;;;;5033131;28;20531;-72
2020/12/07 09:35:08;;;;;;;17.00;12.37;;;7.40;99.90;;;;;;5035920;28;20184;-74
2020/12/07 09:37:35;;;;;;;18.17;12.37;;;7.40;99.90;;;;;;5035937;28;20164;-73
2020/12/07 09:40:02;;;;;;;17.13;12.87;;;7.40;99.90;;;;;;5035977;28;20184;-73
2020/12/07 09:42:28;;;;;;;17.27;12.10;;;7.40;99.90;;;;;;5035783;28;20409;-72
2020/12/07 09:44:53;;;;;;;16.57;13.83;;;7.30;99.90;;;;;;5036586;28;20398;-72
2020/12/07 09:47:19;;;;;;;18.30;12.73;;;7.40;99.90;;;;;;5035848;28;20171;-72
2020/12/07 09:49:44;;;;;;;17.03;13.00;;;7.40;99.90;;;;;;5035707;28;20706;-72
2020/12/07 09:52:10;;;;;;;20.40;13.47;;;7.50;99.90;;;;;;5036497;28;20182;-73
2020/12/07 09:54:39;;;;;;;16.07;13.17;;;7.40;99.90;;;;;;5035544;28;20672;-72
2020/12/07 09:57:05;;;;;;;17.10;12.90;;;7.40;99.90;;;;;;5035921;28;20524;-72
2020/12/07 09:59:32;;;;;;;16.40;12.10;;;7.40;99.90;;;;;;5035834;28;20559;-72
2020/12/07 10:01:58;;;;;;;16.83;13.03;;;7.40;99.90;;;;;;5035796;28;20922;-73
2020/12/07 10:04:24;;;;;;;15.73;13.40;;;7.50;99.90;;;;;;5035330;28;20402;-73
2020/12/07 10:06:49;;;;;;;18.63;13.40;;;7.50;99.90;;;;;;5033795;28;20425;-73
2020/12/07 10:09:15;;;;;;;17.47;12.87;;;7.50;99.90;;;;;;5035362;28;20226;-73
2020/12/07 10:11:40;;;;;;;17.10;13.17;;;7.40;99.90;;;;;;5035396;28;20206;-73
2020/12/07 10:14:06;;;;;;;19.97;14.37;;;7.50;99.90;;;;;;5035115;28;20174;-72
2020/12/07 10:16:31;;;;;;;20.37;12.53;;;7.50;99.90;;;;;;5035169;28;20160;-74
2020/12/07 10:18:57;;;;;;;21.13;14.47;;;7.50;99.90;;;;;;5035142;28;20254;-73
2020/12/07 10:21:26;;;;;;;21.20;12.13;;;7.50;99.90;;;;;;5035041;28;20640;-73
2020/12/07 10:23:52;;;;;;;21.60;14.80;;;7.50;99.90;;;;;;5035321;28;20200;-73
2020/12/07 10:26:24;;;;;;;17.47;13.57;;;7.50;99.90;;;;;;5035095;28;20433;-73
2020/12/07 10:28:50;;;;;;;17.00;13.27;;;7.50;99.90;;;;;;5035007;28;20484;-73
2020/12/07 10:31:19;;;;;;;17.70;13.30;;;7.40;99.90;;;;;;5034811;28;20414;-73
2020/12/07 10:33:45;;;;;;;16.70;12.13;;;7.40;99.90;;;;;;5034838;28;20914;-73
2020/12/07 10:36:10;;;;;;;19.43;12.50;;;7.40;99.90;;;;;;5034848;28;20485;-73
2020/12/07 10:38:36;;;;;;;19.67;12.43;;;7.40;99.90;;;;;;5034730;28;20246;-73
2020/12/07 10:41:01;;;;;;;16.70;12.27;;;7.50;99.90;;;;;;5035090;28;20568;-72
2020/12/07 10:43:26;;;;;;;19.10;12.70;;;7.50;99.90;;;;;;5035086;28;20222;-72
2020/12/07 10:45:52;;;;;;;16.50;11.80;;;7.50;99.90;;;;;;5033699;28;20160;-73
2020/12/07 10:48:17;;;;;;;17.77;13.07;;;7.50;99.90;;;;;;5034477;28;20672;-73
2020/12/07 10:50:43;;;;;;;16.10;12.67;;;7.50;99.90;;;;;;5034616;28;20520;-72
2020/12/07 10:53:08;;;;;;;17.40;12.73;;;7.50;99.90;;;;;;5034596;28;20217;-73
2020/12/07 10:55:34;;;;;;;14.73;12.60;;;7.60;99.90;;;;;;5034783;28;20199;-73
2020/12/07 10:57:59;;;;;;;15.27;12.87;;;7.60;99.90;;;;;;5034310;28;20182;-72
2020/12/07 11:00:24;;;;;;;13.47;11.17;;;7.60;99.90;;;;;;5034697;28;20168;-74
2020/12/07 11:02:50;;;;;;;16.80;12.73;;;7.60;99.90;;;;;;5034648;28;20203;-72
2020/12/07 11:05:15;;;;;;;18.37;13.80;;;7.60;99.90;;;;;;5034917;28;20167;-73
2020/12/07 11:07:44;;;;;;;15.53;13.83;;;7.60;99.90;;;;;;5034378;28;20175;-72
2020/12/07 11:10:10;;;;;;;18.83;12.20;;;7.70;99.90;;;;;;5034292;28;20217;-72
2020/12/07 11:12:38;;;;;;;20.20;13.47;;;7.70;99.90;;;;;;5034336;28;20448;-72
2020/12/07 11:15:03;;;;;;;20.60;14.77;;;7.70;99.90;;;;;;5032645;28;20454;-72
2020/12/07 11:17:29;;;;;;;20.17;14.80;;;7.70;99.90;;;;;;5034011;28;20497;-73
2020/12/07 11:19:54;;;;;;;19.70;13.53;;;7.70;99.90;;;;;;5033791;28;20192;-73
2020/12/07 11:22:20;;;;;;;15.83;12.70;;;7.80;99.90;;;;;;5016998;28;20223;-73
2020/12/07 11:24:45;;;;;;;17.60;13.40;;;7.80;99.90;;;;;;5014289;28;20665;-73
2020/12/07 11:27:11;;;;;;;14.50;12.97;;;7.70;99.90;;;;;;5014053;28;20362;-73
2020/12/07 11:29:36;;;;;;;20.87;13.67;;;7.80;99.90;;;;;;5013946;28;20200;-73
2020/12/07 11:32:01;;;;;;;18.00;14.03;;;7.80;99.90;;;;;;5013829;28;20662;-73
2020/12/07 11:34:27;;;;;;;16.47;12.90;;;7.80;99.90;;;;;;5013833;28;20192;-73
2020/12/07 11:36:52;;;;;;;16.20;13.20;;;7.90;99.90;;;;;;5013852;28;20165;-73
2020/12/07 11:41:56;;;;;;;17.00;12.60;;;7.90;99.90;;;;;;5013917;28;20160;-74
2020/12/07 11:44:21;;;;;;;19.20;15.03;;;7.90;99.90;;;;;;5013675;28;20415;-73
2020/12/07 11:49:12;;;;;;;14.60;11.17;;;7.90;99.90;;;;;;5013652;28;20184;-73
2020/12/07 11:51:41;;;;;;;18.37;14.93;;;8.00;99.90;;;;;;5013649;28;20510;-73
2020/12/07 11:54:06;;;;;;;15.90;12.63;;;8.00;99.90;;;;;;5013370;28;20208;-73
2020/12/07 11:56:33;;;;;;;17.97;13.23;;;8.00;99.90;;;;;;5013334;28;20436;-74
2020/12/07 11:58:59;;;;;;;16.27;12.03;;;8.10;99.90;;;;;;5029966;28;20195;-73
2020/12/07 12:01:25;;;;;;;19.27;13.50;;;8.10;99.90;;;;;;5033330;28;20770;-73
2020/12/07 12:03:51;;;;;;;19.27;13.10;;;8.20;99.90;;;;;;5031878;28;20509;-73
2020/12/07 12:06:27;;;;;;;17.73;12.80;;;8.20;99.90;;;;;;5033118;28;20183;-73
2020/12/07 12:08:54;;;;;;;19.83;13.50;;;8.20;99.90;;;;;;5032965;28;20683;-73
2020/12/07 12:11:25;;;;;;;19.50;14.00;;;8.20;99.90;;;;;;5032999;28;20418;-73
2020/12/07 12:13:51;;;;;;;18.90;13.63;;;8.30;99.90;;;;;;5033131;28;20415;-73
2020/12/07 12:16:17;;;;;;;14.77;11.73;;;8.30;99.90;;;;;;5032858;28;20545;-73
2020/12/07 12:18:42;;;;;;;17.13;12.80;;;8.30;99.90;;;;;;5032840;28;20909;-74
2020/12/07 12:21:08;;;;;;;18.53;13.33;;;8.30;99.90;;;;;;5032459;28;20176;-73
2020/12/07 12:23:33;;;;;;;17.47;14.27;;;8.20;99.90;;;;;;5032429;28;20179;-73
2020/12/07 12:25:59;;;;;;;20.07;14.87;;;8.20;99.90;;;;;;5033057;28;20171;-74
2020/12/07 12:28:24;;;;;;;18.10;13.40;;;8.20;99.90;;;;;;5033548;28;20607;-73
2020/12/07 12:30:50;;;;;;;18.17;13.03;;;8.20;99.90;;;;;;5032992;28;20226;-73
2020/12/07 12:33:15;;;;;;;19.60;13.20;;;8.20;99.90;;;;;;5032602;28;20251;-74
2020/12/07 12:35:41;;;;;;;20.00;13.90;;;8.10;99.90;;;;;;5032376;28;20195;-74
2020/12/07 12:38:06;;;;;;;19.57;13.50;;;8.10;99.90;;;;;;5032336;28;20199;-74
2020/12/07 12:40:32;;;;;;;17.10;12.70;;;8.10;99.90;;;;;;5032611;28;20226;-74
2020/12/07 12:42:57;;;;;;;16.30;13.80;;;8.10;99.90;;;;;;5032678;28;20160;-73
2020/12/07 12:45:23;;;;;;;16.37;13.17;;;8.10;99.90;;;;;;5032430;28;20182;-73
2020/12/07 12:47:48;;;;;;;18.40;14.57;;;8.00;99.90;;;;;;5032302;28;20530;-73
2020/12/07 12:50:14;;;;;;;22.60;15.80;;;8.00;99.90;;;;;;5032479;28;20177;-74
2020/12/07 12:52:39;;;;;;;18.43;15.30;;;8.00;99.90;;;;;;5032560;28;20371;-74
2020/12/07 12:55:05;;;;;;;19.93;15.33;;;7.90;99.90;;;;;;5032231;28;20195;-74
2020/12/07 12:57:30;;;;;;;21.20;15.20;;;7.90;99.90;;;;;;5030920;28;20579;-73
2020/12/07 12:59:56;;;;;;;18.43;14.07;;;7.90;99.90;;;;;;5032178;28;20263;-73
2020/12/07 13:02:22;;;;;;;19.27;17.23;;;7.90;99.90;;;;;;5032202;28;20206;-73